sensor_id;sensor_type;location;lat;lon;timestamp;P1;durP1;ratioP1;P2;durP2;ratioP2
27357;SDS011;14831;50.474;7.616;2022-10-04T00:04:52;1.6;;;1.5;;
27357;SDS011;14831;50.474;7.616;2022-10-04T00:09:48;1.6;;;1.5;;
27357;SDS011;14831;50.474;7.616;2022-10-04T00:14:47;1.6;;;1.5;;
27357;SDS011;14831;50.474;7.616;2022-10-04T00:19:47;1.4;;;1.3;;
27357;SDS011;14831;50.474;7.616;2022-10-04T00:25:19;1.4;;;1.3;;
27357;SDS011;14831;50.474;7.616;2022-10-04T00:29:50;1.4;;;1.3;;
27357;SDS011;14831;50.474;7.616;2022-10-04T00:34:48;1.4;;;1.3;;
27357;SDS011;14831;50.474;7.616;2022-10-04T00:39:55;1.4;;;1.3;;
27357;SDS011;14831;50.474;7.616;2022-10-04T00:44:50;1.4;;;1.3;;
27357;SDS011;14831;50.474;7.616;2022-10-04T00:49:50;1.4;;;1.3;;
27357;SDS011;14831;50.474;7.616;2022-10-04T00:54:48;1.4;;;1.3;;
27357;SDS011;14831;50.474;7.616;2022-10-04T00:59:47;1.4;;;1.3;;
27357;SDS011;14831;50.474;7.616;2022-10-04T01:04:50;1.4;;;1.3;;
27357;SDS011;14831;50.474;7.616;2022-10-04T01:09:51;1.4;;;1.3;;
27357;SDS011;14831;50.474;7.616;2022-10-04T01:14:53;1.4;;;1.3;;
27357;SDS011;14831;50.474;7.616;2022-10-04T01:19:51;1.2;;;1.2;;
27357;SDS011;14831;50.474;7.616;2022-10-04T01:24:46;1.2;;;1.2;;
27357;SDS011;14831;50.474;7.616;2022-10-04T01:29:46;1.2;;;1.2;;
27357;SDS011;14831;50.474;7.616;2022-10-04T01:34:46;1.2;;;1.2;;
27357;SDS011;14831;50.474;7.616;2022-10-04T01:39:46;1.2;;;1.2;;
27357;SDS011;14831;50.474;7.616;2022-10-04T01:44:52;1.2;;;1.2;;
27357;SDS011;14831;50.474;7.616;2022-10-04T01:49:47;1.3;;;1.2;;
27357;SDS011;14831;50.474;7.616;2022-10-04T01:54:49;1.3;;;1.2;;
27357;SDS011;14831;50.474;7.616;2022-10-04T01:59:51;1.3;;;1.2;;
27357;SDS011;14831;50.474;7.616;2022-10-04T02:04:50;1.3;;;1.2;;
27357;SDS011;14831;50.474;7.616;2022-10-04T02:09:49;1.3;;;1.2;;
27357;SDS011;14831;50.474;7.616;2022-10-04T02:14:48;1.3;;;1.2;;
27357;SDS011;14831;50.474;7.616;2022-10-04T02:19:47;1.1;;;1.1;;
27357;SDS011;14831;50.474;7.616;2022-10-04T02:24:47;1.1;;;1.1;;
27357;SDS011;14831;50.474;7.616;2022-10-04T02:29:46;1.1;;;1.1;;
27357;SDS011;14831;50.474;7.616;2022-10-04T02:34:46;1.1;;;1.1;;
27357;SDS011;14831;50.474;7.616;2022-10-04T02:39:48;1.1;;;1.1;;
27357;SDS011;14831;50.474;7.616;2022-10-04T02:44:49;1.1;;;1.1;;
27357;SDS011;14831;50.474;7.616;2022-10-04T02:49:48;1.2;;;1.1;;
27357;SDS011;14831;50.474;7.616;2022-10-04T02:54:50;1.2;;;1.1;;
27357;SDS011;14831;50.474;7.616;2022-10-04T02:59:47;1.2;;;1.1;;
27357;SDS011;14831;50.474;7.616;2022-10-04T03:04:47;1.2;;;1.1;;
27357;SDS011;14831;50.474;7.616;2022-10-04T03:09:46;1.2;;;1.1;;
27357;SDS011;14831;50.474;7.616;2022-10-04T03:14:46;1.2;;;1.1;;
27357;SDS011;14831;50.474;7.616;2022-10-04T03:19:47;1.0;;;1.0;;
27357;SDS011;14831;50.474;7.616;2022-10-04T03:24:48;1.0;;;1.0;;
27357;SDS011;14831;50.474;7.616;2022-10-04T03:29:46;1.0;;;1.0;;
27357;SDS011;14831;50.474;7.616;2022-10-04T03:34:51;1.0;;;1.0;;
27357;SDS011;14831;50.474;7.616;2022-10-04T03:39:48;1.0;;;1.0;;
27357;SDS011;14831;50.474;7.616;2022-10-04T03:44:48;1.0;;;1.0;;
27357;SDS011;14831;50.474;7.616;2022-10-04T03:49:47;1.0;;;1.0;;
27357;SDS011;14831;50.474;7.616;2022-10-04T03:54:48;1.0;;;1.0;;
27357;SDS011;14831;50.474;7.616;2022-10-04T03:59:46;1.0;;;1.0;;
27357;SDS011;14831;50.474;7.616;2022-10-04T04:04:52;1.0;;;1.0;;
27357;SDS011;14831;50.474;7.616;2022-10-04T04:09:51;1.0;;;1.0;;
27357;SDS011;14831;50.474;7.616;2022-10-04T04:14:49;1.0;;;1.0;;
27357;SDS011;14831;50.474;7.616;2022-10-04T04:19:46;1.1;;;1.1;;
27357;SDS011;14831;50.474;7.616;2022-10-04T04:24:46;1.1;;;1.1;;
27357;SDS011;14831;50.474;7.616;2022-10-04T04:29:49;1.1;;;1.1;;
27357;SDS011;14831;50.474;7.616;2022-10-04T04:34:50;1.1;;;1.1;;
27357;SDS011;14831;50.474;7.616;2022-10-04T04:39:48;1.1;;;1.1;;
27357;SDS011;14831;50.474;7.616;2022-10-04T04:44:49;1.1;;;1.1;;
27357;SDS011;14831;50.474;7.616;2022-10-04T04:49:46;1.0;;;1.0;;
27357;SDS011;14831;50.474;7.616;2022-10-04T04:54:46;1.0;;;1.0;;
27357;SDS011;14831;50.474;7.616;2022-10-04T04:59:49;1.0;;;1.0;;
27357;SDS011;14831;50.474;7.616;2022-10-04T05:04:46;1.0;;;1.0;;
27357;SDS011;14831;50.474;7.616;2022-10-04T05:09:46;1.0;;;1.0;;
27357;SDS011;14831;50.474;7.616;2022-10-04T05:14:48;1.0;;;1.0;;
27357;SDS011;14831;50.474;7.616;2022-10-04T05:19:46;1.1;;;1.1;;
27357;SDS011;14831;50.474;7.616;2022-10-04T05:24:49;1.1;;;1.1;;
27357;SDS011;14831;50.474;7.616;2022-10-04T05:29:54;1.1;;;1.1;;
27357;SDS011;14831;50.474;7.616;2022-10-04T05:34:48;1.1;;;1.1;;
27357;SDS011;14831;50.474;7.616;2022-10-04T05:39:52;1.1;;;1.1;;
27357;SDS011;14831;50.474;7.616;2022-10-04T05:44:49;1.1;;;1.1;;
27357;SDS011;14831;50.474;7.616;2022-10-04T05:49:46;1.4;;;1.1;;
27357;SDS011;14831;50.474;7.616;2022-10-04T05:54:46;1.4;;;1.1;;
27357;SDS011;14831;50.474;7.616;2022-10-04T06:00:00;1.4;;;1.1;;
27357;SDS011;14831;50.474;7.616;2022-10-04T06:04:58;1.4;;;1.1;;
27357;SDS011;14831;50.474;7.616;2022-10-04T06:09:55;1.4;;;1.1;;
27357;SDS011;14831;50.474;7.616;2022-10-04T06:14:56;1.4;;;1.1;;
27357;SDS011;14831;50.474;7.616;2022-10-04T06:19:58;1.2;;;1.2;;
27357;SDS011;14831;50.474;7.616;2022-10-04T06:24:48;1.2;;;1.2;;
27357;SDS011;14831;50.474;7.616;2022-10-04T06:29:50;1.2;;;1.2;;
27357;SDS011;14831;50.474;7.616;2022-10-04T06:34:59;1.2;;;1.2;;
27357;SDS011;14831;50.474;7.616;2022-10-04T06:40:00;1.2;;;1.2;;
27357;SDS011;14831;50.474;7.616;2022-10-04T06:44:56;1.2;;;1.2;;
27357;SDS011;14831;50.474;7.616;2022-10-04T06:49:53;1.9;;;1.2;;
27357;SDS011;14831;50.474;7.616;2022-10-04T06:55:08;1.9;;;1.2;;
27357;SDS011;14831;50.474;7.616;2022-10-04T07:00:01;1.9;;;1.2;;
27357;SDS011;14831;50.474;7.616;2022-10-04T07:04:50;1.9;;;1.2;;
27357;SDS011;14831;50.474;7.616;2022-10-04T07:09:46;1.9;;;1.2;;
27357;SDS011;14831;50.474;7.616;2022-10-04T07:14:51;1.9;;;1.2;;
27357;SDS011;14831;50.474;7.616;2022-10-04T07:19:47;1.4;;;1.3;;
27357;SDS011;14831;50.474;7.616;2022-10-04T07:24:56;1.4;;;1.3;;
27357;SDS011;14831;50.474;7.616;2022-10-04T07:29:52;1.4;;;1.3;;
27357;SDS011;14831;50.474;7.616;2022-10-04T07:34:50;1.4;;;1.3;;
27357;SDS011;14831;50.474;7.616;2022-10-04T07:39:52;1.4;;;1.3;;
27357;SDS011;14831;50.474;7.616;2022-10-04T07:44:56;1.4;;;1.3;;
27357;SDS011;14831;50.474;7.616;2022-10-04T07:49:47;2.0;;;1.6;;
27357;SDS011;14831;50.474;7.616;2022-10-04T07:54:50;2.0;;;1.6;;
27357;SDS011;14831;50.474;7.616;2022-10-04T07:59:53;2.0;;;1.6;;
27357;SDS011;14831;50.474;7.616;2022-10-04T08:04:52;2.0;;;1.6;;
27357;SDS011;14831;50.474;7.616;2022-10-04T08:09:55;2.0;;;1.6;;
27357;SDS011;14831;50.474;7.616;2022-10-04T08:14:53;2.0;;;1.6;;
27357;SDS011;14831;50.474;7.616;2022-10-04T08:19:57;4.3;;;1.7;;
27357;SDS011;14831;50.474;7.616;2022-10-04T08:24:58;4.3;;;1.7;;
27357;SDS011;14831;50.474;7.616;2022-10-04T08:30:00;4.3;;;1.7;;
27357;SDS011;14831;50.474;7.616;2022-10-04T08:34:58;4.3;;;1.7;;
27357;SDS011;14831;50.474;7.616;2022-10-04T08:39:57;4.3;;;1.7;;
27357;SDS011;14831;50.474;7.616;2022-10-04T08:51:14;2.4;;;1.5;;
27357;SDS011;14831;50.474;7.616;2022-10-04T08:55:05;2.4;;;1.5;;
27357;SDS011;14831;50.474;7.616;2022-10-04T09:00:07;2.4;;;1.5;;
27357;SDS011;14831;50.474;7.616;2022-10-04T09:05:28;2.4;;;1.5;;
27357;SDS011;14831;50.474;7.616;2022-10-04T09:12:03;2.4;;;1.5;;
27357;SDS011;14831;50.474;7.616;2022-10-04T09:14:58;2.4;;;1.5;;
27357;SDS011;14831;50.474;7.616;2022-10-04T09:19:53;2.8;;;1.4;;
27357;SDS011;14831;50.474;7.616;2022-10-04T09:26:54;2.8;;;1.4;;
27357;SDS011;14831;50.474;7.616;2022-10-04T09:30:00;2.8;;;1.4;;
27357;SDS011;14831;50.474;7.616;2022-10-04T09:35:10;2.8;;;1.4;;
27357;SDS011;14831;50.474;7.616;2022-10-04T09:40:06;2.8;;;1.4;;
27357;SDS011;14831;50.474;7.616;2022-10-04T09:44:54;2.8;;;1.4;;
27357;SDS011;14831;50.474;7.616;2022-10-04T09:51:08;1.5;;;1.4;;
27357;SDS011;14831;50.474;7.616;2022-10-04T09:54:56;1.5;;;1.4;;
27357;SDS011;14831;50.474;7.616;2022-10-04T09:59:55;1.5;;;1.4;;
27357;SDS011;14831;50.474;7.616;2022-10-04T10:04:51;1.5;;;1.4;;
27357;SDS011;14831;50.474;7.616;2022-10-04T10:09:56;1.5;;;1.4;;
27357;SDS011;14831;50.474;7.616;2022-10-04T10:14:58;1.5;;;1.4;;
27357;SDS011;14831;50.474;7.616;2022-10-04T10:20:01;1.6;;;1.5;;
27357;SDS011;14831;50.474;7.616;2022-10-04T10:25:10;1.6;;;1.5;;
27357;SDS011;14831;50.474;7.616;2022-10-04T10:30:00;1.6;;;1.5;;
27357;SDS011;14831;50.474;7.616;2022-10-04T10:35:13;1.6;;;1.5;;
27357;SDS011;14831;50.474;7.616;2022-10-04T10:39:59;1.6;;;1.5;;
27357;SDS011;14831;50.474;7.616;2022-10-04T10:45:00;1.6;;;1.5;;
27357;SDS011;14831;50.474;7.616;2022-10-04T10:49:57;1.5;;;1.4;;
27357;SDS011;14831;50.474;7.616;2022-10-04T10:55:02;1.5;;;1.4;;
27357;SDS011;14831;50.474;7.616;2022-10-04T11:00:10;1.5;;;1.4;;
27357;SDS011;14831;50.474;7.616;2022-10-04T11:04:50;1.5;;;1.4;;
27357;SDS011;14831;50.474;7.616;2022-10-04T11:10:07;1.5;;;1.4;;
27357;SDS011;14831;50.474;7.616;2022-10-04T11:15:00;1.5;;;1.4;;
27357;SDS011;14831;50.474;7.616;2022-10-04T11:20:07;2.1;;;1.6;;
27357;SDS011;14831;50.474;7.616;2022-10-04T11:25:04;2.1;;;1.6;;
27357;SDS011;14831;50.474;7.616;2022-10-04T11:29:57;2.1;;;1.6;;
27357;SDS011;14831;50.474;7.616;2022-10-04T11:35:05;2.1;;;1.6;;
27357;SDS011;14831;50.474;7.616;2022-10-04T11:40:06;2.1;;;1.6;;
27357;SDS011;14831;50.474;7.616;2022-10-04T11:44:59;2.1;;;1.6;;
27357;SDS011;14831;50.474;7.616;2022-10-04T11:49:57;1.3;;;1.2;;
27357;SDS011;14831;50.474;7.616;2022-10-04T11:56:06;1.3;;;1.2;;
27357;SDS011;14831;50.474;7.616;2022-10-04T11:59:56;1.3;;;1.2;;
27357;SDS011;14831;50.474;7.616;2022-10-04T12:05:00;1.3;;;1.2;;
27357;SDS011;14831;50.474;7.616;2022-10-04T12:09:54;1.3;;;1.2;;
27357;SDS011;14831;50.474;7.616;2022-10-04T12:14:58;1.3;;;1.2;;
27357;SDS011;14831;50.474;7.616;2022-10-04T12:19:59;1.4;;;1.3;;
27357;SDS011;14831;50.474;7.616;2022-10-04T12:25:18;1.4;;;1.3;;
27357;SDS011;14831;50.474;7.616;2022-10-04T12:30:34;1.4;;;1.3;;
27357;SDS011;14831;50.474;7.616;2022-10-04T12:34:53;1.4;;;1.3;;
27357;SDS011;14831;50.474;7.616;2022-10-04T12:40:14;1.4;;;1.3;;
27357;SDS011;14831;50.474;7.616;2022-10-04T12:44:59;1.4;;;1.3;;
27357;SDS011;14831;50.474;7.616;2022-10-04T12:49:55;1.3;;;1.2;;
27357;SDS011;14831;50.474;7.616;2022-10-04T12:54:52;1.3;;;1.2;;
27357;SDS011;14831;50.474;7.616;2022-10-04T12:59:54;1.3;;;1.2;;
27357;SDS011;14831;50.474;7.616;2022-10-04T13:04:48;1.3;;;1.2;;
27357;SDS011;14831;50.474;7.616;2022-10-04T13:09:56;1.3;;;1.2;;
27357;SDS011;14831;50.474;7.616;2022-10-04T13:15:00;1.3;;;1.2;;
27357;SDS011;14831;50.474;7.616;2022-10-04T13:19:53;1.4;;;1.3;;
27357;SDS011;14831;50.474;7.616;2022-10-04T13:24:55;1.4;;;1.3;;
27357;SDS011;14831;50.474;7.616;2022-10-04T13:29:51;1.4;;;1.3;;
27357;SDS011;14831;50.474;7.616;2022-10-04T13:34:50;1.4;;;1.3;;
27357;SDS011;14831;50.474;7.616;2022-10-04T13:39:56;1.4;;;1.3;;
27357;SDS011;14831;50.474;7.616;2022-10-04T13:44:57;1.4;;;1.3;;
27357;SDS011;14831;50.474;7.616;2022-10-04T13:49:58;1.1;;;1.1;;
27357;SDS011;14831;50.474;7.616;2022-10-04T13:54:54;1.1;;;1.1;;
27357;SDS011;14831;50.474;7.616;2022-10-04T13:59:51;1.1;;;1.1;;
27357;SDS011;14831;50.474;7.616;2022-10-04T14:05:16;1.1;;;1.1;;
27357;SDS011;14831;50.474;7.616;2022-10-04T14:09:59;1.1;;;1.1;;
27357;SDS011;14831;50.474;7.616;2022-10-04T14:15:03;1.1;;;1.1;;
27357;SDS011;14831;50.474;7.616;2022-10-04T14:19:59;1.3;;;1.2;;
27357;SDS011;14831;50.474;7.616;2022-10-04T14:25:34;1.3;;;1.2;;
27357;SDS011;14831;50.474;7.616;2022-10-04T14:29:57;1.3;;;1.2;;
27357;SDS011;14831;50.474;7.616;2022-10-04T14:34:55;1.3;;;1.2;;
27357;SDS011;14831;50.474;7.616;2022-10-04T14:40:03;1.3;;;1.2;;
27357;SDS011;14831;50.474;7.616;2022-10-04T14:45:24;1.3;;;1.2;;
27357;SDS011;14831;50.474;7.616;2022-10-04T14:49:59;1.4;;;1.2;;
27357;SDS011;14831;50.474;7.616;2022-10-04T14:54:51;1.4;;;1.2;;
27357;SDS011;14831;50.474;7.616;2022-10-04T15:00:00;1.4;;;1.2;;
27357;SDS011;14831;50.474;7.616;2022-10-04T15:05:18;1.4;;;1.2;;
27357;SDS011;14831;50.474;7.616;2022-10-04T15:09:53;1.4;;;1.2;;
27357;SDS011;14831;50.474;7.616;2022-10-04T15:15:12;1.4;;;1.2;;
27357;SDS011;14831;50.474;7.616;2022-10-04T15:20:02;2.7;;;1.8;;
27357;SDS011;14831;50.474;7.616;2022-10-04T15:24:47;2.7;;;1.8;;
27357;SDS011;14831;50.474;7.616;2022-10-04T15:29:53;2.7;;;1.8;;
27357;SDS011;14831;50.474;7.616;2022-10-04T15:34:59;2.7;;;1.8;;
27357;SDS011;14831;50.474;7.616;2022-10-04T15:40:00;2.7;;;1.8;;
27357;SDS011;14831;50.474;7.616;2022-10-04T15:45:00;2.7;;;1.8;;
27357;SDS011;14831;50.474;7.616;2022-10-04T15:49:57;2.7;;;1.9;;
27357;SDS011;14831;50.474;7.616;2022-10-04T15:56:57;2.7;;;1.9;;
27357;SDS011;14831;50.474;7.616;2022-10-04T15:59:50;2.7;;;1.9;;
27357;SDS011;14831;50.474;7.616;2022-10-04T16:04:57;2.7;;;1.9;;
27357;SDS011;14831;50.474;7.616;2022-10-04T16:09:51;2.7;;;1.9;;
27357;SDS011;14831;50.474;7.616;2022-10-04T16:14:53;2.7;;;1.9;;
27357;SDS011;14831;50.474;7.616;2022-10-04T16:19:58;3.9;;;2.4;;
27357;SDS011;14831;50.474;7.616;2022-10-04T16:24:47;3.9;;;2.4;;
27357;SDS011;14831;50.474;7.616;2022-10-04T16:29:55;3.9;;;2.4;;
27357;SDS011;14831;50.474;7.616;2022-10-04T16:34:49;3.9;;;2.4;;
27357;SDS011;14831;50.474;7.616;2022-10-04T16:39:53;3.9;;;2.4;;
27357;SDS011;14831;50.474;7.616;2022-10-04T16:44:51;3.9;;;2.4;;
27357;SDS011;14831;50.474;7.616;2022-10-04T16:49:49;6.6;;;3.7;;
27357;SDS011;14831;50.474;7.616;2022-10-04T16:54:58;6.6;;;3.7;;
27357;SDS011;14831;50.474;7.616;2022-10-04T16:59:49;6.6;;;3.7;;
27357;SDS011;14831;50.474;7.616;2022-10-04T17:04:52;6.6;;;3.7;;
27357;SDS011;14831;50.474;7.616;2022-10-04T17:09:47;6.6;;;3.7;;
27357;SDS011;14831;50.474;7.616;2022-10-04T17:14:55;6.6;;;3.7;;
27357;SDS011;14831;50.474;7.616;2022-10-04T17:19:49;4.2;;;3.1;;
27357;SDS011;14831;50.474;7.616;2022-10-04T17:24:59;4.2;;;3.1;;
27357;SDS011;14831;50.474;7.616;2022-10-04T17:29:53;4.2;;;3.1;;
27357;SDS011;14831;50.474;7.616;2022-10-04T17:34:54;4.2;;;3.1;;
27357;SDS011;14831;50.474;7.616;2022-10-04T17:39:48;4.2;;;3.1;;
27357;SDS011;14831;50.474;7.616;2022-10-04T17:44:59;4.2;;;3.1;;
27357;SDS011;14831;50.474;7.616;2022-10-04T17:49:55;3.0;;;2.7;;
27357;SDS011;14831;50.474;7.616;2022-10-04T17:54:49;3.0;;;2.7;;
27357;SDS011;14831;50.474;7.616;2022-10-04T17:59:49;3.0;;;2.7;;
27357;SDS011;14831;50.474;7.616;2022-10-04T18:04:49;3.0;;;2.7;;
27357;SDS011;14831;50.474;7.616;2022-10-04T18:09:49;3.0;;;2.7;;
27357;SDS011;14831;50.474;7.616;2022-10-04T18:14:58;3.0;;;2.7;;
27357;SDS011;14831;50.474;7.616;2022-10-04T18:19:57;3.0;;;2.7;;
27357;SDS011;14831;50.474;7.616;2022-10-04T18:24:47;3.0;;;2.7;;
27357;SDS011;14831;50.474;7.616;2022-10-04T18:29:56;3.0;;;2.7;;
27357;SDS011;14831;50.474;7.616;2022-10-04T18:34:53;3.0;;;2.7;;
27357;SDS011;14831;50.474;7.616;2022-10-04T18:39:47;3.0;;;2.7;;
27357;SDS011;14831;50.474;7.616;2022-10-04T18:44:55;3.0;;;2.7;;
27357;SDS011;14831;50.474;7.616;2022-10-04T18:49:51;3.2;;;2.7;;
27357;SDS011;14831;50.474;7.616;2022-10-04T18:54:54;3.2;;;2.7;;
27357;SDS011;14831;50.474;7.616;2022-10-04T18:59:55;3.2;;;2.7;;
27357;SDS011;14831;50.474;7.616;2022-10-04T19:04:56;3.2;;;2.7;;
27357;SDS011;14831;50.474;7.616;2022-10-04T19:10:03;3.2;;;2.7;;
27357;SDS011;14831;50.474;7.616;2022-10-04T19:14:51;3.2;;;2.7;;
27357;SDS011;14831;50.474;7.616;2022-10-04T19:19:53;2.7;;;2.5;;
27357;SDS011;14831;50.474;7.616;2022-10-04T19:24:58;2.7;;;2.5;;
27357;SDS011;14831;50.474;7.616;2022-10-04T19:29:58;2.7;;;2.5;;
27357;SDS011;14831;50.474;7.616;2022-10-04T19:34:52;2.7;;;2.5;;
27357;SDS011;14831;50.474;7.616;2022-10-04T19:39:53;2.7;;;2.5;;
27357;SDS011;14831;50.474;7.616;2022-10-04T19:44:56;2.7;;;2.5;;
27357;SDS011;14831;50.474;7.616;2022-10-04T19:49:52;2.6;;;2.4;;
27357;SDS011;14831;50.474;7.616;2022-10-04T19:54:46;2.6;;;2.4;;
27357;SDS011;14831;50.474;7.616;2022-10-04T19:59:46;2.6;;;2.4;;
27357;SDS011;14831;50.474;7.616;2022-10-04T20:04:46;2.6;;;2.4;;
27357;SDS011;14831;50.474;7.616;2022-10-04T20:09:52;2.6;;;2.4;;
27357;SDS011;14831;50.474;7.616;2022-10-04T20:14:46;2.6;;;2.4;;
27357;SDS011;14831;50.474;7.616;2022-10-04T20:19:46;2.5;;;2.3;;
27357;SDS011;14831;50.474;7.616;2022-10-04T20:24:49;2.5;;;2.3;;
27357;SDS011;14831;50.474;7.616;2022-10-04T20:30:03;2.5;;;2.3;;
27357;SDS011;14831;50.474;7.616;2022-10-04T20:34:47;2.5;;;2.3;;
27357;SDS011;14831;50.474;7.616;2022-10-04T20:40:01;2.5;;;2.3;;
27357;SDS011;14831;50.474;7.616;2022-10-04T20:44:49;2.5;;;2.3;;
27357;SDS011;14831;50.474;7.616;2022-10-04T20:49:46;2.2;;;2.0;;
27357;SDS011;14831;50.474;7.616;2022-10-04T20:54:48;2.2;;;2.0;;
27357;SDS011;14831;50.474;7.616;2022-10-04T20:59:46;2.2;;;2.0;;
27357;SDS011;14831;50.474;7.616;2022-10-04T21:04:46;2.2;;;2.0;;
27357;SDS011;14831;50.474;7.616;2022-10-04T21:09:46;2.2;;;2.0;;
27357;SDS011;14831;50.474;7.616;2022-10-04T21:15:01;2.2;;;2.0;;
27357;SDS011;14831;50.474;7.616;2022-10-04T21:19:46;2.1;;;2.0;;
27357;SDS011;14831;50.474;7.616;2022-10-04T21:24:53;2.1;;;2.0;;
27357;SDS011;14831;50.474;7.616;2022-10-04T21:29:46;2.1;;;2.0;;
27357;SDS011;14831;50.474;7.616;2022-10-04T21:34:46;2.1;;;2.0;;
27357;SDS011;14831;50.474;7.616;2022-10-04T21:39:46;2.1;;;2.0;;
27357;SDS011;14831;50.474;7.616;2022-10-04T21:44:46;2.1;;;2.0;;
27357;SDS011;14831;50.474;7.616;2022-10-04T21:49:46;2.1;;;2.0;;
27357;SDS011;14831;50.474;7.616;2022-10-04T21:54:46;2.1;;;2.0;;
27357;SDS011;14831;50.474;7.616;2022-10-04T21:59:46;2.1;;;2.0;;
27357;SDS011;14831;50.474;7.616;2022-10-04T22:04:46;2.1;;;2.0;;
27357;SDS011;14831;50.474;7.616;2022-10-04T22:09:46;2.1;;;2.0;;
27357;SDS011;14831;50.474;7.616;2022-10-04T22:14:46;2.1;;;2.0;;
27357;SDS011;14831;50.474;7.616;2022-10-04T22:19:46;2.0;;;1.9;;
27357;SDS011;14831;50.474;7.616;2022-10-04T22:24:46;2.0;;;1.9;;
27357;SDS011;14831;50.474;7.616;2022-10-04T22:29:46;2.0;;;1.9;;
27357;SDS011;14831;50.474;7.616;2022-10-04T22:34:46;2.0;;;1.9;;
27357;SDS011;14831;50.474;7.616;2022-10-04T22:39:46;2.0;;;1.9;;
27357;SDS011;14831;50.474;7.616;2022-10-04T22:44:46;2.0;;;1.9;;
27357;SDS011;14831;50.474;7.616;2022-10-04T22:49:48;1.9;;;1.8;;
27357;SDS011;14831;50.474;7.616;2022-10-04T22:54:48;1.9;;;1.8;;
27357;SDS011;14831;50.474;7.616;2022-10-04T22:59:47;1.9;;;1.8;;
27357;SDS011;14831;50.474;7.616;2022-10-04T23:04:50;1.9;;;1.8;;
27357;SDS011;14831;50.474;7.616;2022-10-04T23:09:46;1.9;;;1.8;;
27357;SDS011;14831;50.474;7.616;2022-10-04T23:14:46;1.9;;;1.8;;
27357;SDS011;14831;50.474;7.616;2022-10-04T23:19:46;1.8;;;1.7;;
27357;SDS011;14831;50.474;7.616;2022-10-04T23:24:46;1.8;;;1.7;;
27357;SDS011;14831;50.474;7.616;2022-10-04T23:29:47;1.8;;;1.7;;
27357;SDS011;14831;50.474;7.616;2022-10-04T23:34:48;1.8;;;1.7;;
27357;SDS011;14831;50.474;7.616;2022-10-04T23:39:46;1.8;;;1.7;;
27357;SDS011;14831;50.474;7.616;2022-10-04T23:44:47;1.8;;;1.7;;
27357;SDS011;14831;50.474;7.616;2022-10-04T23:49:49;2.0;;;1.9;;
27357;SDS011;14831;50.474;7.616;2022-10-04T23:54:47;2.0;;;1.9;;
27357;SDS011;14831;50.474;7.616;2022-10-04T23:59:47;2.0;;;1.9;;
